岡山グライダークラブ活動状況掲示板あなたは無料カウンター人目の訪問者です

岡山グライダークラブ
岡山市浦安南町639-1 岡南飛行場
 使用機:シャイベ式 SF25C型 ファルケ   JA2330
      ヴァレンティン式17E型 タイフーン  JA2342
 練習日:毎日曜日  クラブルーム:電話 086-265-1810
この掲示板は岡山グライダークラブの活動状況をお知らせする掲示板です。
!!!この掲示板は投稿規制をしています。!!!
クラブ関連各種情報は 岡山グライダークラブクラブルーム      を       .
  ブリーフイング情報は  岡山グライダークラブブリーフィングルーム  をご覧下さい。 .
※写真はクリックすると拡大して見ることが出来ます。
岡南飛行場へのアクセス等は 岡南飛行場管理事務所 をご覧ください。
クラブの ホームページ ができました。

 
09月01日
by OGC at 2019/9/1(日) 20:30:16 No.20190901202702  削除コメント
1024 x 768 x 99,820バイト
No.1

09月01日
本日の参加者
  会員      14名
  その他      0名


@本日の様子




METAR
RJOB 010000Z VRB01KT 8000 -SHRA FEW008 SCT020 BKN130 22/21 Q1019
RJOT 010000Z VRB01KT 9999 FEW025 SCT100 BKN160 25/21 Q1019
RJOA 010000Z VRB02KT 5000 -SHRA BCFG BR FEW000 SCT020 BKN030 20/18 Q1020
TAF
RJOB 312308Z 0100/0206 12004KT 7000 -RA FEW005 SCT008 BKN015
         BECMG 0100/0102 4000 -SHRA BR FEW001 SCT005 BKN008
         TEMPO 0102/0109 2000 SHRA BR BCFG FEW000 SCT001 BKN003
         BECMG 0112/0115 8000 NSW FEW001 SCT008 BKN015
         TEMPO 0121/0203 FEW001 BKN008 BKN015
RJOT 312312Z 0100/0206 06007KT 6000 FEW008 SCT015 BKN035
         TEMPO 0102/0106 4000 -SHRA BR FEW001 SCT005 BKN008
RJOA 010508Z 0106/0212 12004KT 6000 FEW001 SCT004 BKN008
         TEMPO 0106/0110 3000 BR BCFG FEW000 SCT003 BKN005
         BECMG 0110/0112 4000 -SHRA BR BCFG
         TEMPO 0112/0118 1500 SHRA BR BCFG FEW000 SCT002 BKN003
         BECMG 0118/0121 9999 NSW FEW008 SCT025
         BECMG 0200/0203 23005KT

本日は、雨がいつ降ってもおかしくない天候でしたが、そこは「晴れの国」パワーで帰る頃には晴れていました。
ファルケは、短めの訓練フライトを繰り返し、気が付くと13フライトも飛んでいました。
一方、タイフーンは社内検査フライトに耐空検査フライトを行い、来週からいつも通りの通常訓練になります。

解散    18:10

1番機  10:55離陸 撤収機  17:25着陸 

SF25C JA2330 ファルケ     13Flt.2h30min  
17E   JA2342 タイフーン    02Flt.1h00min  
合計                    15Flt.3h35min

    << 戻る || ホームページ || 最新の掲示板へ